Arco, Idaho
Current Conditions -  °F | °C
As of 12:47 PM on Friday 28 Nov 2014 (Local Time) from KSUN Reporting Station
Broken Clouds Broken Clouds  
Wind Chill: 44°   Ceiling: 10000
Heat Index: 48°   Visibility: 10mi
Dew Point: 21°   Wind: 9mph
Humidity: 34%   Direction: 170°S
Pressure: 29.84"   Gusts: NA
Location:  43.64°N, 113.3°W
Report Text: KSUN 281947Z 17008KT 10SM BKN100 09/M06 A2984
Loading
Personal Weather Stations






























Interactive Weather Map New forecast layout! Learn more

10-Day Weather Forecast

Advertisements
Track Severe Weather on mobile